sensor_id;sensor_type;location;lat;lon;timestamp;P1;durP1;ratioP1;P2;durP2;ratioP2
51614;SDS011;37695;52.960;6.188;2023-03-01T00:01:26;7.72;;;5.70;;
51614;SDS011;37695;52.960;6.188;2023-03-01T00:03:53;9.30;;;6.70;;
51614;SDS011;37695;52.960;6.188;2023-03-01T00:06:20;10.73;;;7.28;;
51614;SDS011;37695;52.960;6.188;2023-03-01T00:08:46;9.60;;;6.57;;
51614;SDS011;37695;52.960;6.188;2023-03-01T00:11:14;9.85;;;6.72;;
51614;SDS011;37695;52.960;6.188;2023-03-01T00:13:40;8.98;;;6.50;;
51614;SDS011;37695;52.960;6.188;2023-03-01T00:16:50;10.90;;;7.68;;
51614;SDS011;37695;52.960;6.188;2023-03-01T00:19:01;10.10;;;7.47;;
51614;SDS011;37695;52.960;6.188;2023-03-01T00:21:27;11.02;;;8.13;;
51614;SDS011;37695;52.960;6.188;2023-03-01T00:23:54;11.55;;;8.27;;
51614;SDS011;37695;52.960;6.188;2023-03-01T00:26:21;12.10;;;8.15;;
51614;SDS011;37695;52.960;6.188;2023-03-01T00:28:47;12.93;;;7.85;;
51614;SDS011;37695;52.960;6.188;2023-03-01T00:31:14;11.20;;;8.68;;
51614;SDS011;37695;52.960;6.188;2023-03-01T00:33:42;11.15;;;8.40;;
51614;SDS011;37695;52.960;6.188;2023-03-01T00:36:08;9.95;;;6.60;;
51614;SDS011;37695;52.960;6.188;2023-03-01T00:38:35;10.90;;;7.85;;
51614;SDS011;37695;52.960;6.188;2023-03-01T00:41:08;9.80;;;6.60;;
51614;SDS011;37695;52.960;6.188;2023-03-01T00:43:36;13.32;;;7.70;;
51614;SDS011;37695;52.960;6.188;2023-03-01T00:46:03;10.13;;;7.20;;
51614;SDS011;37695;52.960;6.188;2023-03-01T00:48:29;9.70;;;6.93;;
51614;SDS011;37695;52.960;6.188;2023-03-01T00:50:55;10.25;;;6.93;;
51614;SDS011;37695;52.960;6.188;2023-03-01T00:53:20;10.95;;;6.95;;
51614;SDS011;37695;52.960;6.188;2023-03-01T00:55:46;8.68;;;6.70;;
51614;SDS011;37695;52.960;6.188;2023-03-01T00:58:11;9.32;;;6.15;;
51614;SDS011;37695;52.960;6.188;2023-03-01T01:00:37;11.63;;;7.68;;
51614;SDS011;37695;52.960;6.188;2023-03-01T01:03:03;10.93;;;7.75;;
51614;SDS011;37695;52.960;6.188;2023-03-01T01:05:28;12.75;;;7.88;;
51614;SDS011;37695;52.960;6.188;2023-03-01T01:07:54;11.43;;;7.70;;
51614;SDS011;37695;52.960;6.188;2023-03-01T01:10:19;15.52;;;7.57;;
51614;SDS011;37695;52.960;6.188;2023-03-01T01:12:46;11.27;;;7.50;;
51614;SDS011;37695;52.960;6.188;2023-03-01T01:15:12;10.05;;;7.35;;
51614;SDS011;37695;52.960;6.188;2023-03-01T01:17:39;9.00;;;6.30;;
51614;SDS011;37695;52.960;6.188;2023-03-01T01:20:04;11.18;;;7.32;;
51614;SDS011;37695;52.960;6.188;2023-03-01T01:22:31;9.82;;;7.47;;
51614;SDS011;37695;52.960;6.188;2023-03-01T01:24:56;10.43;;;7.43;;
51614;SDS011;37695;52.960;6.188;2023-03-01T01:27:22;11.07;;;8.02;;
51614;SDS011;37695;52.960;6.188;2023-03-01T01:29:48;11.70;;;7.82;;
51614;SDS011;37695;52.960;6.188;2023-03-01T01:32:13;13.20;;;8.27;;
51614;SDS011;37695;52.960;6.188;2023-03-01T01:34:39;13.82;;;10.32;;
51614;SDS011;37695;52.960;6.188;2023-03-01T01:37:04;13.50;;;8.70;;
51614;SDS011;37695;52.960;6.188;2023-03-01T01:39:32;22.48;;;8.82;;
51614;SDS011;37695;52.960;6.188;2023-03-01T01:42:00;50.88;;;11.38;;
51614;SDS011;37695;52.960;6.188;2023-03-01T01:44:27;60.00;;;9.68;;
51614;SDS011;37695;52.960;6.188;2023-03-01T01:47:07;46.13;;;10.13;;
51614;SDS011;37695;52.960;6.188;2023-03-01T01:49:46;57.30;;;10.18;;
51614;SDS011;37695;52.960;6.188;2023-03-01T01:52:26;30.05;;;9.68;;
51614;SDS011;37695;52.960;6.188;2023-03-01T01:57:27;39.55;;;10.73;;
51614;SDS011;37695;52.960;6.188;2023-03-01T01:59:59;61.00;;;11.77;;
51614;SDS011;37695;52.960;6.188;2023-03-01T02:02:28;69.13;;;10.73;;
51614;SDS011;37695;52.960;6.188;2023-03-01T02:04:55;92.20;;;12.77;;
51614;SDS011;37695;52.960;6.188;2023-03-01T02:07:28;46.83;;;11.25;;
51614;SDS011;37695;52.960;6.188;2023-03-01T02:09:55;64.43;;;11.30;;
51614;SDS011;37695;52.960;6.188;2023-03-01T02:12:21;67.60;;;11.75;;
51614;SDS011;37695;52.960;6.188;2023-03-01T02:14:49;63.83;;;11.45;;
51614;SDS011;37695;52.960;6.188;2023-03-01T02:17:15;45.13;;;11.60;;
51614;SDS011;37695;52.960;6.188;2023-03-01T02:22:32;29.98;;;14.52;;
51614;SDS011;37695;52.960;6.188;2023-03-01T02:25:18;32.20;;;14.13;;
51614;SDS011;37695;52.960;6.188;2023-03-01T02:30:44;46.33;;;12.77;;
51614;SDS011;37695;52.960;6.188;2023-03-01T02:33:31;52.47;;;10.75;;
51614;SDS011;37695;52.960;6.188;2023-03-01T02:36:00;24.00;;;11.52;;
51614;SDS011;37695;52.960;6.188;2023-03-01T02:38:28;51.20;;;12.82;;
51614;SDS011;37695;52.960;6.188;2023-03-01T02:40:55;71.97;;;11.18;;
51614;SDS011;37695;52.960;6.188;2023-03-01T02:43:22;45.28;;;11.00;;
51614;SDS011;37695;52.960;6.188;2023-03-01T02:45:51;44.08;;;10.65;;
51614;SDS011;37695;52.960;6.188;2023-03-01T02:48:18;20.45;;;9.63;;
51614;SDS011;37695;52.960;6.188;2023-03-01T02:51:05;12.38;;;8.55;;
51614;SDS011;37695;52.960;6.188;2023-03-01T02:53:41;18.75;;;9.32;;
51614;SDS011;37695;52.960;6.188;2023-03-01T02:56:18;62.50;;;11.38;;
51614;SDS011;37695;52.960;6.188;2023-03-01T02:58:44;41.53;;;8.65;;
51614;SDS011;37695;52.960;6.188;2023-03-01T03:01:12;33.38;;;7.35;;
51614;SDS011;37695;52.960;6.188;2023-03-01T03:03:40;63.08;;;7.95;;
51614;SDS011;37695;52.960;6.188;2023-03-01T03:06:06;81.90;;;9.45;;
51614;SDS011;37695;52.960;6.188;2023-03-01T03:08:31;17.48;;;7.10;;
51614;SDS011;37695;52.960;6.188;2023-03-01T03:10:57;74.70;;;9.48;;
51614;SDS011;37695;52.960;6.188;2023-03-01T03:13:23;24.38;;;6.22;;
51614;SDS011;37695;52.960;6.188;2023-03-01T03:15:53;22.73;;;6.47;;
51614;SDS011;37695;52.960;6.188;2023-03-01T03:18:20;15.43;;;6.10;;
51614;SDS011;37695;52.960;6.188;2023-03-01T03:20:46;11.60;;;7.45;;
51614;SDS011;37695;52.960;6.188;2023-03-01T03:23:12;10.30;;;7.50;;
51614;SDS011;37695;52.960;6.188;2023-03-01T03:25:38;10.50;;;5.78;;
51614;SDS011;37695;52.960;6.188;2023-03-01T03:28:05;9.82;;;7.03;;
51614;SDS011;37695;52.960;6.188;2023-03-01T03:30:35;32.28;;;6.10;;
51614;SDS011;37695;52.960;6.188;2023-03-01T03:33:04;24.35;;;6.13;;
51614;SDS011;37695;52.960;6.188;2023-03-01T03:35:31;36.58;;;7.30;;
51614;SDS011;37695;52.960;6.188;2023-03-01T03:37:59;17.98;;;6.18;;
51614;SDS011;37695;52.960;6.188;2023-03-01T03:42:59;19.02;;;5.80;;
51614;SDS011;37695;52.960;6.188;2023-03-01T03:45:26;31.73;;;5.93;;
51614;SDS011;37695;52.960;6.188;2023-03-01T03:47:51;58.00;;;8.20;;
51614;SDS011;37695;52.960;6.188;2023-03-01T03:50:17;19.65;;;6.65;;
51614;SDS011;37695;52.960;6.188;2023-03-01T03:52:43;16.63;;;5.20;;
51614;SDS011;37695;52.960;6.188;2023-03-01T03:55:09;7.55;;;5.25;;
51614;SDS011;37695;52.960;6.188;2023-03-01T03:57:37;8.63;;;5.53;;
51614;SDS011;37695;52.960;6.188;2023-03-01T04:00:04;15.93;;;5.93;;
51614;SDS011;37695;52.960;6.188;2023-03-01T04:02:44;7.45;;;5.57;;
51614;SDS011;37695;52.960;6.188;2023-03-01T04:05:11;7.72;;;5.85;;
51614;SDS011;37695;52.960;6.188;2023-03-01T04:07:39;11.10;;;5.75;;
51614;SDS011;37695;52.960;6.188;2023-03-01T04:10:06;8.60;;;5.57;;
51614;SDS011;37695;52.960;6.188;2023-03-01T04:12:34;7.82;;;5.60;;
51614;SDS011;37695;52.960;6.188;2023-03-01T04:15:01;12.32;;;5.53;;
51614;SDS011;37695;52.960;6.188;2023-03-01T04:17:37;6.80;;;5.30;;
51614;SDS011;37695;52.960;6.188;2023-03-01T04:20:04;7.72;;;5.30;;
51614;SDS011;37695;52.960;6.188;2023-03-01T04:22:30;8.35;;;5.80;;
51614;SDS011;37695;52.960;6.188;2023-03-01T04:24:57;7.43;;;5.55;;
51614;SDS011;37695;52.960;6.188;2023-03-01T04:27:23;6.85;;;5.47;;
51614;SDS011;37695;52.960;6.188;2023-03-01T04:29:48;8.77;;;5.90;;
51614;SDS011;37695;52.960;6.188;2023-03-01T04:32:14;37.50;;;6.30;;
51614;SDS011;37695;52.960;6.188;2023-03-01T04:34:41;24.70;;;6.03;;
51614;SDS011;37695;52.960;6.188;2023-03-01T04:37:06;15.27;;;6.00;;
51614;SDS011;37695;52.960;6.188;2023-03-01T04:39:32;12.48;;;6.10;;
51614;SDS011;37695;52.960;6.188;2023-03-01T04:41:57;8.27;;;6.10;;
51614;SDS011;37695;52.960;6.188;2023-03-01T04:44:23;9.30;;;6.40;;
51614;SDS011;37695;52.960;6.188;2023-03-01T04:46:49;8.43;;;6.20;;
51614;SDS011;37695;52.960;6.188;2023-03-01T04:49:15;10.95;;;6.15;;
51614;SDS011;37695;52.960;6.188;2023-03-01T04:51:41;11.82;;;6.35;;
51614;SDS011;37695;52.960;6.188;2023-03-01T04:54:06;8.68;;;6.25;;
51614;SDS011;37695;52.960;6.188;2023-03-01T04:56:33;8.00;;;6.60;;
51614;SDS011;37695;52.960;6.188;2023-03-01T04:58:59;8.63;;;6.07;;
51614;SDS011;37695;52.960;6.188;2023-03-01T05:01:25;8.98;;;6.40;;
51614;SDS011;37695;52.960;6.188;2023-03-01T05:03:51;9.32;;;6.50;;
51614;SDS011;37695;52.960;6.188;2023-03-01T05:06:17;8.18;;;6.00;;
51614;SDS011;37695;52.960;6.188;2023-03-01T05:08:44;8.05;;;6.18;;
51614;SDS011;37695;52.960;6.188;2023-03-01T05:11:10;15.48;;;6.25;;
51614;SDS011;37695;52.960;6.188;2023-03-01T05:13:37;17.75;;;6.40;;
51614;SDS011;37695;52.960;6.188;2023-03-01T05:16:04;15.30;;;6.43;;
51614;SDS011;37695;52.960;6.188;2023-03-01T05:18:31;10.63;;;6.28;;
51614;SDS011;37695;52.960;6.188;2023-03-01T05:21:02;9.93;;;6.13;;
51614;SDS011;37695;52.960;6.188;2023-03-01T05:23:31;12.77;;;6.78;;
51614;SDS011;37695;52.960;6.188;2023-03-01T05:25:58;9.30;;;6.38;;
51614;SDS011;37695;52.960;6.188;2023-03-01T05:28:25;9.50;;;6.53;;
51614;SDS011;37695;52.960;6.188;2023-03-01T05:30:51;8.88;;;6.47;;
51614;SDS011;37695;52.960;6.188;2023-03-01T05:33:17;10.70;;;6.53;;
51614;SDS011;37695;52.960;6.188;2023-03-01T05:35:43;9.07;;;6.60;;
51614;SDS011;37695;52.960;6.188;2023-03-01T05:38:10;8.30;;;5.80;;
51614;SDS011;37695;52.960;6.188;2023-03-01T05:40:38;9.13;;;6.60;;
51614;SDS011;37695;52.960;6.188;2023-03-01T05:43:06;8.65;;;6.55;;
51614;SDS011;37695;52.960;6.188;2023-03-01T05:45:32;10.35;;;7.30;;
51614;SDS011;37695;52.960;6.188;2023-03-01T05:48:00;9.10;;;6.30;;
51614;SDS011;37695;52.960;6.188;2023-03-01T05:50:27;9.10;;;6.35;;
51614;SDS011;37695;52.960;6.188;2023-03-01T05:53:00;9.27;;;6.50;;
51614;SDS011;37695;52.960;6.188;2023-03-01T05:55:29;8.30;;;6.10;;
51614;SDS011;37695;52.960;6.188;2023-03-01T05:57:57;9.65;;;6.82;;
51614;SDS011;37695;52.960;6.188;2023-03-01T06:00:24;9.32;;;6.57;;
51614;SDS011;37695;52.960;6.188;2023-03-01T06:02:53;11.55;;;7.18;;
51614;SDS011;37695;52.960;6.188;2023-03-01T06:05:19;14.75;;;6.57;;
51614;SDS011;37695;52.960;6.188;2023-03-01T06:07:45;9.50;;;7.22;;
51614;SDS011;37695;52.960;6.188;2023-03-01T06:10:11;9.32;;;7.07;;
51614;SDS011;37695;52.960;6.188;2023-03-01T06:12:37;8.32;;;5.95;;
51614;SDS011;37695;52.960;6.188;2023-03-01T06:15:04;11.07;;;6.20;;
51614;SDS011;37695;52.960;6.188;2023-03-01T06:17:33;8.55;;;6.00;;
51614;SDS011;37695;52.960;6.188;2023-03-01T06:20:06;10.15;;;6.68;;
51614;SDS011;37695;52.960;6.188;2023-03-01T06:22:34;10.27;;;6.78;;
51614;SDS011;37695;52.960;6.188;2023-03-01T06:25:00;9.05;;;6.63;;
51614;SDS011;37695;52.960;6.188;2023-03-01T06:27:25;10.73;;;6.43;;
51614;SDS011;37695;52.960;6.188;2023-03-01T06:29:51;8.05;;;6.10;;
51614;SDS011;37695;52.960;6.188;2023-03-01T06:32:17;8.27;;;5.85;;
51614;SDS011;37695;52.960;6.188;2023-03-01T06:34:42;8.23;;;5.80;;
51614;SDS011;37695;52.960;6.188;2023-03-01T06:37:08;8.25;;;6.00;;
51614;SDS011;37695;52.960;6.188;2023-03-01T06:39:33;8.30;;;6.03;;
51614;SDS011;37695;52.960;6.188;2023-03-01T06:41:59;10.18;;;6.25;;
51614;SDS011;37695;52.960;6.188;2023-03-01T06:44:25;8.88;;;6.53;;
51614;SDS011;37695;52.960;6.188;2023-03-01T06:46:51;8.77;;;6.30;;
51614;SDS011;37695;52.960;6.188;2023-03-01T06:49:17;8.25;;;6.32;;
51614;SDS011;37695;52.960;6.188;2023-03-01T06:51:43;8.93;;;6.43;;
51614;SDS011;37695;52.960;6.188;2023-03-01T06:54:09;7.70;;;5.82;;
51614;SDS011;37695;52.960;6.188;2023-03-01T06:56:35;8.13;;;6.28;;
51614;SDS011;37695;52.960;6.188;2023-03-01T06:59:00;7.55;;;5.80;;
51614;SDS011;37695;52.960;6.188;2023-03-01T07:01:27;8.18;;;6.05;;
51614;SDS011;37695;52.960;6.188;2023-03-01T07:03:53;9.00;;;6.30;;
51614;SDS011;37695;52.960;6.188;2023-03-01T07:06:19;8.48;;;6.28;;
51614;SDS011;37695;52.960;6.188;2023-03-01T07:08:44;7.65;;;5.85;;
51614;SDS011;37695;52.960;6.188;2023-03-01T07:11:10;7.85;;;5.88;;
51614;SDS011;37695;52.960;6.188;2023-03-01T07:13:36;8.90;;;6.13;;
51614;SDS011;37695;52.960;6.188;2023-03-01T07:16:01;10.13;;;6.57;;
51614;SDS011;37695;52.960;6.188;2023-03-01T07:18:27;9.48;;;6.55;;
51614;SDS011;37695;52.960;6.188;2023-03-01T07:20:52;8.73;;;6.53;;
51614;SDS011;37695;52.960;6.188;2023-03-01T07:23:18;8.45;;;6.45;;
51614;SDS011;37695;52.960;6.188;2023-03-01T07:25:43;9.63;;;6.70;;
51614;SDS011;37695;52.960;6.188;2023-03-01T07:28:09;8.80;;;7.05;;
51614;SDS011;37695;52.960;6.188;2023-03-01T07:30:34;8.98;;;6.43;;
51614;SDS011;37695;52.960;6.188;2023-03-01T07:33:00;8.43;;;6.05;;
51614;SDS011;37695;52.960;6.188;2023-03-01T07:35:26;8.98;;;6.40;;
51614;SDS011;37695;52.960;6.188;2023-03-01T07:37:52;8.25;;;6.15;;
51614;SDS011;37695;52.960;6.188;2023-03-01T07:40:18;9.25;;;6.60;;
51614;SDS011;37695;52.960;6.188;2023-03-01T07:42:44;8.93;;;6.55;;
51614;SDS011;37695;52.960;6.188;2023-03-01T07:45:09;10.75;;;7.35;;
51614;SDS011;37695;52.960;6.188;2023-03-01T07:47:35;9.18;;;7.22;;
51614;SDS011;37695;52.960;6.188;2023-03-01T07:50:01;9.45;;;6.60;;
51614;SDS011;37695;52.960;6.188;2023-03-01T07:52:29;10.57;;;6.88;;
51614;SDS011;37695;52.960;6.188;2023-03-01T07:54:55;9.73;;;6.75;;
51614;SDS011;37695;52.960;6.188;2023-03-01T07:57:21;8.52;;;6.65;;
51614;SDS011;37695;52.960;6.188;2023-03-01T07:59:47;8.85;;;6.95;;
51614;SDS011;37695;52.960;6.188;2023-03-01T08:02:12;9.52;;;7.15;;
51614;SDS011;37695;52.960;6.188;2023-03-01T08:04:40;9.20;;;6.90;;
51614;SDS011;37695;52.960;6.188;2023-03-01T08:07:06;10.02;;;7.82;;
51614;SDS011;37695;52.960;6.188;2023-03-01T08:09:33;10.80;;;7.13;;
51614;SDS011;37695;52.960;6.188;2023-03-01T08:12:00;10.50;;;7.45;;
51614;SDS011;37695;52.960;6.188;2023-03-01T08:14:25;14.80;;;7.72;;
51614;SDS011;37695;52.960;6.188;2023-03-01T08:16:51;10.13;;;7.40;;
51614;SDS011;37695;52.960;6.188;2023-03-01T08:19:16;11.27;;;8.50;;
51614;SDS011;37695;52.960;6.188;2023-03-01T08:21:42;11.35;;;8.95;;
51614;SDS011;37695;52.960;6.188;2023-03-01T08:24:08;11.70;;;8.90;;
51614;SDS011;37695;52.960;6.188;2023-03-01T08:26:35;11.95;;;8.93;;
51614;SDS011;37695;52.960;6.188;2023-03-01T08:29:01;13.38;;;9.60;;
51614;SDS011;37695;52.960;6.188;2023-03-01T08:31:37;12.18;;;9.00;;
51614;SDS011;37695;52.960;6.188;2023-03-01T08:34:07;12.15;;;9.20;;
51614;SDS011;37695;52.960;6.188;2023-03-01T08:36:36;12.98;;;9.50;;
51614;SDS011;37695;52.960;6.188;2023-03-01T08:39:04;12.15;;;9.27;;
51614;SDS011;37695;52.960;6.188;2023-03-01T08:41:30;14.95;;;10.80;;
51614;SDS011;37695;52.960;6.188;2023-03-01T08:43:56;15.15;;;11.10;;
51614;SDS011;37695;52.960;6.188;2023-03-01T08:46:28;14.60;;;11.15;;
51614;SDS011;37695;52.960;6.188;2023-03-01T08:48:55;16.17;;;11.43;;
51614;SDS011;37695;52.960;6.188;2023-03-01T08:51:21;14.50;;;11.10;;
51614;SDS011;37695;52.960;6.188;2023-03-01T08:53:47;15.80;;;11.65;;
51614;SDS011;37695;52.960;6.188;2023-03-01T08:56:13;16.27;;;12.07;;
51614;SDS011;37695;52.960;6.188;2023-03-01T08:58:40;16.05;;;11.95;;
51614;SDS011;37695;52.960;6.188;2023-03-01T09:01:09;16.90;;;12.48;;
51614;SDS011;37695;52.960;6.188;2023-03-01T09:03:36;19.40;;;13.57;;
51614;SDS011;37695;52.960;6.188;2023-03-01T09:06:03;18.67;;;13.93;;
51614;SDS011;37695;52.960;6.188;2023-03-01T09:08:29;18.90;;;14.20;;
51614;SDS011;37695;52.960;6.188;2023-03-01T09:10:55;21.85;;;14.90;;
51614;SDS011;37695;52.960;6.188;2023-03-01T09:13:21;19.65;;;13.73;;
51614;SDS011;37695;52.960;6.188;2023-03-01T09:15:50;20.70;;;14.15;;
51614;SDS011;37695;52.960;6.188;2023-03-01T09:18:16;20.65;;;15.25;;
51614;SDS011;37695;52.960;6.188;2023-03-01T09:20:41;22.27;;;14.32;;
51614;SDS011;37695;52.960;6.188;2023-03-01T09:23:07;19.08;;;14.68;;
51614;SDS011;37695;52.960;6.188;2023-03-01T09:25:33;18.25;;;13.50;;
51614;SDS011;37695;52.960;6.188;2023-03-01T09:27:59;22.25;;;15.43;;
51614;SDS011;37695;52.960;6.188;2023-03-01T09:30:25;20.70;;;15.48;;
51614;SDS011;37695;52.960;6.188;2023-03-01T09:32:50;20.17;;;14.13;;
51614;SDS011;37695;52.960;6.188;2023-03-01T09:35:17;20.02;;;14.65;;
51614;SDS011;37695;52.960;6.188;2023-03-01T09:37:44;22.17;;;15.40;;
51614;SDS011;37695;52.960;6.188;2023-03-01T09:40:20;22.23;;;16.35;;
51614;SDS011;37695;52.960;6.188;2023-03-01T09:42:51;23.00;;;15.70;;
51614;SDS011;37695;52.960;6.188;2023-03-01T09:45:35;24.17;;;15.98;;
51614;SDS011;37695;52.960;6.188;2023-03-01T09:48:06;19.88;;;14.15;;
51614;SDS011;37695;52.960;6.188;2023-03-01T09:50:41;21.48;;;15.65;;
51614;SDS011;37695;52.960;6.188;2023-03-01T10:01:25;23.33;;;15.32;;
51614;SDS011;37695;52.960;6.188;2023-03-01T10:06:44;19.40;;;15.13;;
51614;SDS011;37695;52.960;6.188;2023-03-01T10:09:22;19.63;;;15.20;;
51614;SDS011;37695;52.960;6.188;2023-03-01T10:11:49;20.50;;;14.13;;
51614;SDS011;37695;52.960;6.188;2023-03-01T10:17:04;18.75;;;13.00;;
51614;SDS011;37695;52.960;6.188;2023-03-01T10:19:44;18.67;;;13.50;;
51614;SDS011;37695;52.960;6.188;2023-03-01T10:22:15;18.48;;;12.40;;
51614;SDS011;37695;52.960;6.188;2023-03-01T10:24:41;15.60;;;12.65;;
51614;SDS011;37695;52.960;6.188;2023-03-01T10:27:09;16.95;;;12.82;;
51614;SDS011;37695;52.960;6.188;2023-03-01T10:32:41;17.25;;;12.35;;
51614;SDS011;37695;52.960;6.188;2023-03-01T10:38:09;16.35;;;10.93;;
51614;SDS011;37695;52.960;6.188;2023-03-01T10:40:49;15.05;;;11.10;;
51614;SDS011;37695;52.960;6.188;2023-03-01T10:43:14;13.70;;;10.57;;
51614;SDS011;37695;52.960;6.188;2023-03-01T10:45:40;14.93;;;10.73;;
51614;SDS011;37695;52.960;6.188;2023-03-01T10:48:13;14.43;;;9.55;;
51614;SDS011;37695;52.960;6.188;2023-03-01T10:50:51;11.90;;;9.18;;
51614;SDS011;37695;52.960;6.188;2023-03-01T10:53:44;13.65;;;9.88;;
51614;SDS011;37695;52.960;6.188;2023-03-01T10:56:14;12.95;;;9.75;;
51614;SDS011;37695;52.960;6.188;2023-03-01T10:58:41;13.45;;;10.40;;
51614;SDS011;37695;52.960;6.188;2023-03-01T11:03:55;12.65;;;9.35;;
51614;SDS011;37695;52.960;6.188;2023-03-01T11:06:31;13.50;;;8.95;;
51614;SDS011;37695;52.960;6.188;2023-03-01T11:09:01;11.73;;;8.82;;
51614;SDS011;37695;52.960;6.188;2023-03-01T11:11:51;13.73;;;8.60;;
51614;SDS011;37695;52.960;6.188;2023-03-01T11:14:22;12.45;;;8.50;;
51614;SDS011;37695;52.960;6.188;2023-03-01T11:17:11;12.20;;;9.23;;
51614;SDS011;37695;52.960;6.188;2023-03-01T11:19:42;12.70;;;9.50;;
51614;SDS011;37695;52.960;6.188;2023-03-01T11:22:12;11.85;;;8.75;;
51614;SDS011;37695;52.960;6.188;2023-03-01T11:24:43;15.95;;;9.75;;
51614;SDS011;37695;52.960;6.188;2023-03-01T11:27:16;12.07;;;10.05;;
51614;SDS011;37695;52.960;6.188;2023-03-01T11:29:59;13.82;;;9.85;;
51614;SDS011;37695;52.960;6.188;2023-03-01T11:32:33;12.60;;;9.38;;
51614;SDS011;37695;52.960;6.188;2023-03-01T11:35:25;14.02;;;9.93;;
51614;SDS011;37695;52.960;6.188;2023-03-01T11:40:28;12.63;;;9.60;;
51614;SDS011;37695;52.960;6.188;2023-03-01T11:46:22;12.93;;;9.45;;
51614;SDS011;37695;52.960;6.188;2023-03-01T11:52:07;12.02;;;8.63;;
51614;SDS011;37695;52.960;6.188;2023-03-01T11:57:43;13.25;;;9.52;;
51614;SDS011;37695;52.960;6.188;2023-03-01T12:00:32;16.75;;;10.88;;
51614;SDS011;37695;52.960;6.188;2023-03-01T12:14:35;14.30;;;10.63;;
51614;SDS011;37695;52.960;6.188;2023-03-01T12:17:07;15.80;;;10.10;;
51614;SDS011;37695;52.960;6.188;2023-03-01T12:22:41;13.57;;;10.50;;
51614;SDS011;37695;52.960;6.188;2023-03-01T12:25:41;13.70;;;10.65;;
51614;SDS011;37695;52.960;6.188;2023-03-01T12:34:17;13.73;;;9.40;;
51614;SDS011;37695;52.960;6.188;2023-03-01T12:37:11;11.70;;;9.30;;
51614;SDS011;37695;52.960;6.188;2023-03-01T12:45:32;12.02;;;9.65;;
51614;SDS011;37695;52.960;6.188;2023-03-01T12:50:59;12.98;;;9.13;;
51614;SDS011;37695;52.960;6.188;2023-03-01T12:53:29;11.23;;;8.60;;
51614;SDS011;37695;52.960;6.188;2023-03-01T12:56:00;12.80;;;8.77;;
51614;SDS011;37695;52.960;6.188;2023-03-01T12:58:31;12.52;;;8.45;;
51614;SDS011;37695;52.960;6.188;2023-03-01T13:01:03;12.73;;;9.40;;
51614;SDS011;37695;52.960;6.188;2023-03-01T13:06:22;15.13;;;9.35;;
51614;SDS011;37695;52.960;6.188;2023-03-01T13:11:49;14.45;;;10.85;;
51614;SDS011;37695;52.960;6.188;2023-03-01T13:16:50;12.55;;;9.32;;
51614;SDS011;37695;52.960;6.188;2023-03-01T13:19:20;11.23;;;9.18;;
51614;SDS011;37695;52.960;6.188;2023-03-01T13:21:53;14.73;;;9.95;;
51614;SDS011;37695;52.960;6.188;2023-03-01T13:24:23;13.05;;;9.88;;
51614;SDS011;37695;52.960;6.188;2023-03-01T13:27:39;13.60;;;9.75;;
51614;SDS011;37695;52.960;6.188;2023-03-01T13:29:46;13.85;;;10.18;;
51614;SDS011;37695;52.960;6.188;2023-03-01T13:32:25;13.10;;;10.13;;
51614;SDS011;37695;52.960;6.188;2023-03-01T13:35:03;13.40;;;10.13;;
51614;SDS011;37695;52.960;6.188;2023-03-01T13:37:44;14.95;;;10.43;;
51614;SDS011;37695;52.960;6.188;2023-03-01T13:40:56;15.65;;;10.75;;
51614;SDS011;37695;52.960;6.188;2023-03-01T13:42:58;13.23;;;9.60;;
51614;SDS011;37695;52.960;6.188;2023-03-01T13:46:00;13.57;;;9.73;;
51614;SDS011;37695;52.960;6.188;2023-03-01T13:48:33;16.13;;;10.23;;
51614;SDS011;37695;52.960;6.188;2023-03-01T13:51:03;14.35;;;9.75;;
51614;SDS011;37695;52.960;6.188;2023-03-01T13:53:33;15.27;;;9.98;;
51614;SDS011;37695;52.960;6.188;2023-03-01T14:01:30;13.55;;;10.85;;
51614;SDS011;37695;52.960;6.188;2023-03-01T14:03:57;15.07;;;10.45;;
51614;SDS011;37695;52.960;6.188;2023-03-01T14:06:24;14.25;;;9.95;;
51614;SDS011;37695;52.960;6.188;2023-03-01T14:09:02;12.90;;;10.27;;
51614;SDS011;37695;52.960;6.188;2023-03-01T14:20:18;15.63;;;10.95;;
51614;SDS011;37695;52.960;6.188;2023-03-01T14:22:47;14.45;;;10.75;;
51614;SDS011;37695;52.960;6.188;2023-03-01T14:25:24;18.05;;;11.65;;
51614;SDS011;37695;52.960;6.188;2023-03-01T14:27:57;13.95;;;10.27;;
51614;SDS011;37695;52.960;6.188;2023-03-01T14:30:38;17.60;;;11.40;;
51614;SDS011;37695;52.960;6.188;2023-03-01T14:36:02;13.68;;;11.00;;
51614;SDS011;37695;52.960;6.188;2023-03-01T14:38:29;13.68;;;9.98;;
51614;SDS011;37695;52.960;6.188;2023-03-01T14:40:56;14.45;;;10.55;;
51614;SDS011;37695;52.960;6.188;2023-03-01T14:43:26;18.90;;;12.50;;
51614;SDS011;37695;52.960;6.188;2023-03-01T14:45:54;16.58;;;12.85;;
51614;SDS011;37695;52.960;6.188;2023-03-01T14:48:19;14.52;;;10.60;;
51614;SDS011;37695;52.960;6.188;2023-03-01T14:50:46;13.63;;;10.98;;
51614;SDS011;37695;52.960;6.188;2023-03-01T14:53:30;43.00;;;24.60;;
51614;SDS011;37695;52.960;6.188;2023-03-01T14:55:58;17.48;;;13.95;;
51614;SDS011;37695;52.960;6.188;2023-03-01T14:58:28;20.45;;;13.68;;
51614;SDS011;37695;52.960;6.188;2023-03-01T15:00:59;14.98;;;11.73;;
51614;SDS011;37695;52.960;6.188;2023-03-01T15:05:55;14.73;;;11.38;;
51614;SDS011;37695;52.960;6.188;2023-03-01T15:08:23;17.98;;;11.52;;
51614;SDS011;37695;52.960;6.188;2023-03-01T15:11:01;14.27;;;10.60;;
51614;SDS011;37695;52.960;6.188;2023-03-01T15:13:41;16.13;;;11.23;;
51614;SDS011;37695;52.960;6.188;2023-03-01T15:16:09;14.27;;;11.10;;
51614;SDS011;37695;52.960;6.188;2023-03-01T15:18:37;12.05;;;10.05;;
51614;SDS011;37695;52.960;6.188;2023-03-01T15:21:20;12.52;;;9.90;;
51614;SDS011;37695;52.960;6.188;2023-03-01T15:23:52;13.10;;;10.85;;
51614;SDS011;37695;52.960;6.188;2023-03-01T15:26:33;12.93;;;9.98;;
51614;SDS011;37695;52.960;6.188;2023-03-01T15:29:03;14.20;;;10.65;;
51614;SDS011;37695;52.960;6.188;2023-03-01T15:31:33;15.45;;;11.00;;
51614;SDS011;37695;52.960;6.188;2023-03-01T15:34:25;14.23;;;10.27;;
51614;SDS011;37695;52.960;6.188;2023-03-01T15:36:49;12.75;;;10.25;;
51614;SDS011;37695;52.960;6.188;2023-03-01T15:42:47;12.82;;;9.82;;
51614;SDS011;37695;52.960;6.188;2023-03-01T15:47:41;12.75;;;10.25;;
51614;SDS011;37695;52.960;6.188;2023-03-01T15:50:16;12.55;;;9.90;;
51614;SDS011;37695;52.960;6.188;2023-03-01T15:52:50;13.32;;;9.80;;
51614;SDS011;37695;52.960;6.188;2023-03-01T15:55:20;14.27;;;10.48;;
51614;SDS011;37695;52.960;6.188;2023-03-01T15:57:47;12.65;;;10.63;;
51614;SDS011;37695;52.960;6.188;2023-03-01T16:00:14;13.95;;;10.73;;
51614;SDS011;37695;52.960;6.188;2023-03-01T16:02:41;13.40;;;10.55;;
51614;SDS011;37695;52.960;6.188;2023-03-01T16:05:12;14.27;;;10.82;;
51614;SDS011;37695;52.960;6.188;2023-03-01T16:07:44;14.32;;;10.82;;
51614;SDS011;37695;52.960;6.188;2023-03-01T16:10:10;13.23;;;10.90;;
51614;SDS011;37695;52.960;6.188;2023-03-01T16:12:35;12.57;;;10.00;;
51614;SDS011;37695;52.960;6.188;2023-03-01T16:15:01;12.73;;;10.18;;
51614;SDS011;37695;52.960;6.188;2023-03-01T16:17:27;14.15;;;10.93;;
51614;SDS011;37695;52.960;6.188;2023-03-01T16:19:53;14.77;;;11.20;;
51614;SDS011;37695;52.960;6.188;2023-03-01T16:22:18;13.40;;;11.25;;
51614;SDS011;37695;52.960;6.188;2023-03-01T16:24:49;15.05;;;12.35;;
51614;SDS011;37695;52.960;6.188;2023-03-01T16:27:15;14.40;;;11.80;;
51614;SDS011;37695;52.960;6.188;2023-03-01T16:29:40;15.38;;;12.52;;
51614;SDS011;37695;52.960;6.188;2023-03-01T16:32:06;16.08;;;12.65;;
51614;SDS011;37695;52.960;6.188;2023-03-01T16:34:31;15.73;;;12.02;;